createdAt,value
2024-02-13T00:02:10.149Z,9.6
2024-02-13T00:05:10.446Z,9.4
2024-02-13T00:08:10.437Z,9.3
2024-02-13T00:11:10.022Z,9.5
2024-02-13T00:14:09.867Z,9.6
2024-02-13T00:23:09.945Z,9.2
2024-02-13T00:26:09.778Z,9.3
2024-02-13T00:29:09.876Z,9.3
2024-02-13T00:32:11.426Z,9.5
2024-02-13T00:35:10.650Z,9.6
2024-02-13T00:38:10.330Z,9.8
2024-02-13T00:41:09.789Z,9.8
2024-02-13T00:44:09.737Z,9.8
2024-02-13T00:47:10.119Z,9.6
2024-02-13T00:50:10.818Z,9.4
2024-02-13T00:53:09.970Z,9.4
2024-02-13T00:56:09.812Z,9.6
2024-02-13T00:59:09.988Z,9.7
2024-02-13T01:02:09.978Z,9.8
2024-02-13T01:05:10.002Z,9.6
2024-02-13T01:08:09.943Z,9.3
2024-02-13T01:11:09.781Z,9.0
2024-02-13T01:14:09.752Z,8.8
2024-02-13T01:17:09.871Z,8.7
2024-02-13T01:20:10.625Z,8.5
2024-02-13T01:23:09.804Z,8.5
2024-02-13T01:26:09.723Z,8.4
2024-02-13T01:29:09.713Z,8.6
2024-02-13T01:32:10.056Z,8.8
2024-02-13T01:35:10.753Z,9.0
2024-02-13T01:38:10.153Z,9.1
2024-02-13T01:41:09.812Z,9.3
2024-02-13T01:44:09.660Z,9.4
2024-02-13T01:47:09.866Z,9.5
2024-02-13T01:50:10.884Z,9.6
2024-02-13T01:53:09.920Z,9.4
2024-02-13T01:56:09.801Z,9.2
2024-02-13T01:59:09.971Z,9.1
2024-02-13T02:02:09.948Z,9.1
2024-02-13T02:05:10.182Z,9.1
2024-02-13T02:08:10.382Z,8.9
2024-02-13T02:11:10.004Z,9.1
2024-02-13T02:14:09.869Z,9.3
2024-02-13T02:17:09.884Z,9.3
2024-02-13T02:20:10.898Z,9.4
2024-02-13T02:23:09.782Z,9.5
2024-02-13T02:26:09.836Z,9.5
2024-02-13T02:29:09.716Z,9.4
2024-02-13T02:32:09.686Z,9.2
2024-02-13T02:35:10.903Z,9.1
2024-02-13T02:38:10.030Z,8.9
2024-02-13T02:41:09.997Z,8.6
2024-02-13T02:44:09.992Z,8.4
2024-02-13T02:47:09.809Z,8.3
2024-02-13T02:50:10.407Z,8.4
2024-02-13T02:53:09.770Z,8.6
2024-02-13T02:56:09.847Z,8.8
2024-02-13T02:59:10.169Z,9.0
2024-02-13T03:02:10.726Z,9.0
2024-02-13T03:05:14.776Z,9.1
2024-02-13T03:08:10.125Z,9.0
2024-02-13T03:11:09.870Z,8.7
2024-02-13T03:14:09.875Z,8.5
2024-02-13T03:17:09.745Z,8.5
2024-02-13T03:20:11.179Z,8.8
2024-02-13T03:23:09.940Z,8.9
2024-02-13T03:26:10.175Z,9.0
2024-02-13T03:29:09.719Z,9.1
2024-02-13T03:41:09.758Z,8.3
2024-02-13T03:44:10.207Z,8.3
2024-02-13T03:47:09.728Z,8.4
2024-02-13T03:50:10.967Z,8.3
2024-02-13T03:53:10.180Z,8.3
2024-02-13T03:56:09.885Z,8.4
2024-02-13T03:59:10.828Z,8.5
2024-02-13T04:02:10.153Z,8.6
2024-02-13T04:05:10.011Z,8.7
2024-02-13T04:08:10.291Z,8.9
2024-02-13T04:11:09.926Z,9.0
2024-02-13T04:14:09.824Z,9.0
2024-02-13T04:17:09.846Z,9.0
2024-02-13T04:20:10.651Z,8.9
2024-02-13T04:23:10.098Z,8.9
2024-02-13T04:26:15.196Z,9.0
2024-02-13T04:29:09.816Z,9.0
2024-02-13T04:32:10.001Z,9.0
2024-02-13T04:35:11.295Z,9.1
2024-02-13T04:38:09.792Z,9.1
2024-02-13T04:41:10.058Z,9.0
2024-02-13T04:44:09.826Z,8.9
2024-02-13T04:47:09.783Z,8.9
2024-02-13T04:50:12.009Z,9.0
2024-02-13T04:53:10.009Z,9.0
2024-02-13T04:56:10.015Z,9.0
2024-02-13T04:59:09.892Z,9.0
2024-02-13T05:02:10.017Z,9.0
2024-02-13T05:05:11.021Z,9.0
2024-02-13T05:08:10.299Z,8.9
2024-02-13T05:11:09.971Z,8.8
2024-02-13T05:14:09.953Z,8.8
2024-02-13T05:17:09.722Z,8.8
2024-02-13T05:20:11.182Z,8.8
2024-02-13T05:23:09.906Z,8.7
2024-02-13T05:26:10.043Z,8.7
2024-02-13T05:29:11.843Z,8.7
2024-02-13T05:32:10.387Z,8.7
2024-02-13T05:35:10.771Z,8.7
2024-02-13T05:38:09.774Z,8.3
2024-02-13T05:41:10.760Z,7.8
2024-02-13T05:44:09.631Z,7.4
2024-02-13T05:47:09.705Z,7.3
2024-02-13T05:50:10.314Z,7.5
2024-02-13T06:23:09.775Z,7.0
2024-02-13T06:26:09.919Z,7.2
2024-02-13T06:29:09.675Z,7.6
2024-02-13T06:32:10.057Z,7.7
2024-02-13T06:35:11.044Z,7.8
2024-02-13T06:38:09.923Z,7.9
2024-02-13T06:41:10.112Z,7.9
2024-02-13T06:44:14.758Z,7.5
2024-02-13T06:47:09.770Z,7.5
2024-02-13T06:50:11.733Z,7.6
2024-02-13T06:53:10.125Z,7.6
2024-02-13T06:56:11.978Z,7.7
2024-02-13T06:59:09.816Z,7.7
2024-02-13T07:02:15.121Z,7.6
2024-02-13T07:05:09.961Z,7.6
2024-02-13T07:11:10.906Z,7.3
2024-02-13T07:14:09.659Z,7.2
2024-02-13T07:17:13.594Z,7.0
2024-02-13T07:20:12.558Z,6.8
2024-02-13T07:23:20.833Z,6.5
2024-02-13T07:26:09.768Z,6.4
2024-02-13T07:29:12.946Z,6.2
2024-02-13T07:32:13.094Z,6.2
2024-02-13T07:35:11.570Z,6.1
2024-02-13T07:38:09.896Z,6.1
2024-02-13T07:41:10.060Z,5.9
2024-02-13T07:44:09.604Z,5.9
2024-02-13T07:47:09.941Z,6.3
2024-02-13T07:50:11.804Z,6.8
2024-02-13T07:53:09.724Z,7.0
2024-02-13T07:56:09.772Z,7.3
2024-02-13T07:59:09.797Z,7.6
2024-02-13T08:02:10.062Z,7.8
2024-02-13T08:05:09.913Z,7.8
2024-02-13T08:08:10.349Z,7.7
2024-02-13T08:11:09.719Z,7.7
2024-02-13T08:14:10.205Z,7.8
2024-02-13T08:17:10.191Z,7.7
2024-02-13T08:20:10.646Z,7.6
2024-02-13T08:23:09.777Z,7.8
2024-02-13T08:26:12.240Z,7.9
2024-02-13T08:29:10.029Z,7.8
2024-02-13T08:32:09.904Z,7.8
2024-02-13T08:35:12.144Z,7.5
2024-02-13T08:38:12.992Z,7.4
2024-02-13T08:41:10.618Z,7.6
2024-02-13T08:44:10.377Z,8.0
2024-02-13T08:47:09.804Z,8.1
2024-02-13T08:50:12.539Z,8.0
2024-02-13T08:53:14.776Z,7.7
2024-02-13T08:56:09.929Z,7.7
2024-02-13T08:59:09.930Z,7.6
2024-02-13T09:02:10.954Z,7.6
2024-02-13T09:05:10.196Z,7.7
2024-02-13T09:08:12.181Z,7.6
2024-02-13T09:11:09.970Z,7.7
2024-02-13T09:14:09.990Z,8.1
2024-02-13T09:17:09.824Z,8.5
2024-02-13T09:20:11.039Z,8.6
2024-02-13T09:23:09.756Z,8.7
2024-02-13T09:26:09.751Z,8.7
2024-02-13T09:29:09.912Z,8.7
2024-02-13T09:32:09.878Z,8.5
2024-02-13T09:35:10.782Z,8.3
2024-02-13T09:38:10.877Z,8.4
2024-02-13T09:41:10.925Z,8.7
2024-02-13T09:44:14.099Z,9.0
2024-02-13T09:47:09.798Z,9.2
2024-02-13T09:50:15.769Z,9.3
2024-02-13T09:53:09.763Z,9.3
2024-02-13T09:56:11.632Z,9.3
2024-02-13T09:59:09.775Z,9.3
2024-02-13T10:02:10.277Z,9.4
2024-02-13T10:05:10.393Z,9.0
2024-02-13T10:08:12.155Z,8.4
2024-02-13T10:11:09.791Z,8.1
2024-02-13T10:14:11.113Z,7.9
2024-02-13T10:17:09.973Z,7.8
2024-02-13T10:20:11.379Z,7.8
2024-02-13T10:23:09.811Z,7.8
2024-02-13T10:26:13.696Z,7.8
2024-02-13T10:29:09.793Z,7.8
2024-02-13T10:32:12.890Z,7.9
2024-02-13T10:35:10.371Z,8.0
2024-02-13T10:38:10.220Z,7.9
2024-02-13T10:41:09.952Z,8.1
2024-02-13T10:44:12.152Z,8.4
2024-02-13T10:47:09.809Z,8.4
2024-02-13T10:50:13.163Z,8.6
2024-02-13T10:53:09.850Z,8.8
2024-02-13T10:56:12.740Z,9.0
2024-02-13T10:59:22.020Z,9.1
2024-02-13T11:02:12.890Z,9.0
2024-02-13T11:05:10.758Z,9.0
2024-02-13T11:08:14.461Z,9.1
2024-02-13T11:11:09.879Z,9.1
2024-02-13T11:14:10.411Z,9.0
2024-02-13T11:17:09.909Z,9.2
2024-02-13T11:20:15.021Z,9.2
2024-02-13T11:23:09.856Z,9.4
2024-02-13T11:26:12.841Z,9.8
2024-02-13T11:29:22.599Z,10.2
2024-02-13T11:32:13.251Z,10.7
2024-02-13T11:35:12.291Z,11.0
2024-02-13T11:38:11.835Z,11.1
2024-02-13T11:41:09.820Z,11.2
2024-02-13T11:44:10.020Z,11.0
2024-02-13T11:47:09.750Z,10.9
2024-02-13T11:50:13.462Z,10.8
2024-02-13T11:53:09.711Z,10.6
2024-02-13T11:56:09.760Z,10.5
2024-02-13T11:59:10.246Z,10.7
2024-02-13T12:02:11.700Z,10.6
2024-02-13T12:05:10.504Z,10.7
2024-02-13T12:08:10.016Z,10.6
2024-02-13T12:11:09.847Z,10.8
2024-02-13T12:14:09.736Z,10.9
2024-02-13T12:17:09.779Z,11.0
2024-02-13T12:20:11.081Z,10.9
2024-02-13T12:23:09.884Z,11.2
2024-02-13T12:26:09.801Z,11.3
2024-02-13T12:29:10.113Z,11.6
2024-02-13T12:32:09.905Z,11.8
2024-02-13T12:35:12.394Z,11.9
2024-02-13T12:38:10.077Z,11.9
2024-02-13T12:41:10.148Z,12.0
2024-02-13T12:44:11.952Z,11.6
2024-02-13T12:47:09.906Z,11.5
2024-02-13T12:50:18.526Z,11.2
2024-02-13T12:53:10.162Z,11.1
2024-02-13T12:56:10.795Z,11.1
2024-02-13T12:59:09.945Z,11.2
2024-02-13T13:02:10.545Z,11.3
2024-02-13T13:05:10.106Z,11.6
2024-02-13T13:08:10.144Z,11.8
2024-02-13T13:11:20.433Z,12.1
2024-02-13T13:14:10.695Z,12.1
2024-02-13T13:17:19.191Z,12.0
2024-02-13T13:20:14.581Z,12.0
2024-02-13T13:23:09.873Z,12.0
2024-02-13T13:26:10.574Z,11.9
2024-02-13T13:29:10.126Z,11.8
2024-02-13T13:32:10.932Z,11.8
2024-02-13T13:35:11.701Z,11.8
2024-02-13T13:38:10.420Z,11.8
2024-02-13T13:41:10.092Z,11.9
2024-02-13T13:44:10.595Z,12.3
2024-02-13T13:47:09.794Z,12.4
2024-02-13T13:50:11.932Z,12.6
2024-02-13T13:53:09.865Z,12.7
2024-02-13T13:56:10.333Z,12.8
2024-02-13T13:59:09.911Z,12.9
2024-02-13T14:02:10.140Z,12.9
2024-02-13T14:05:09.930Z,13.0
2024-02-13T14:08:10.736Z,12.9
2024-02-13T14:11:09.851Z,12.9
2024-02-13T14:14:10.201Z,12.8
2024-02-13T14:17:09.684Z,12.9
2024-02-13T14:20:10.668Z,12.9
2024-02-13T14:23:09.789Z,13.0
2024-02-13T14:26:09.956Z,12.9
2024-02-13T14:29:09.809Z,12.9
2024-02-13T14:32:10.554Z,12.9
2024-02-13T14:35:11.636Z,13.0
2024-02-13T14:38:10.818Z,13.1
2024-02-13T14:41:09.905Z,13.2
2024-02-13T14:44:09.774Z,13.1
2024-02-13T14:47:09.825Z,13.0
2024-02-13T14:50:11.040Z,12.7
2024-02-13T14:53:10.301Z,12.5
2024-02-13T14:56:09.889Z,12.4
2024-02-13T15:02:14.035Z,12.3
2024-02-13T15:05:10.338Z,12.3
2024-02-13T15:08:10.598Z,12.5
2024-02-13T15:11:10.234Z,12.7
2024-02-13T15:14:09.700Z,12.9
2024-02-13T15:17:10.332Z,12.9
2024-02-13T15:20:11.888Z,13.0
2024-02-13T15:23:09.989Z,13.0
2024-02-13T15:26:09.815Z,12.8
2024-02-13T15:29:09.816Z,12.8
2024-02-13T15:32:12.663Z,12.6
2024-02-13T15:35:11.270Z,12.6
2024-02-13T15:38:10.476Z,12.4
2024-02-13T15:41:09.792Z,12.0
2024-02-13T15:44:09.962Z,11.8
2024-02-13T15:47:09.843Z,11.7
2024-02-13T15:50:12.582Z,11.7
2024-02-13T15:53:09.734Z,11.8
2024-02-13T15:56:09.869Z,11.8
2024-02-13T15:59:09.786Z,11.7
2024-02-13T16:02:10.181Z,11.8
2024-02-13T16:05:10.516Z,11.8
2024-02-13T16:08:10.292Z,11.8
2024-02-13T16:11:10.092Z,12.0
2024-02-13T16:14:09.939Z,12.0
2024-02-13T16:17:09.746Z,12.0
2024-02-13T16:20:11.359Z,11.8
2024-02-13T16:23:09.825Z,11.6
2024-02-13T16:26:09.774Z,11.4
2024-02-13T16:29:10.196Z,11.4
2024-02-13T16:32:10.926Z,11.2
2024-02-13T16:35:11.304Z,11.2
2024-02-13T16:38:12.819Z,11.3
2024-02-13T16:41:09.747Z,11.5
2024-02-13T16:44:12.096Z,11.8
2024-02-13T16:47:10.261Z,11.8
2024-02-13T16:50:16.092Z,11.9
2024-02-13T16:53:09.737Z,11.8
2024-02-13T16:56:13.897Z,12.2
2024-02-13T17:05:10.452Z,12.1
2024-02-13T17:08:11.078Z,12.3
2024-02-13T17:11:09.844Z,12.7
2024-02-13T17:14:09.869Z,12.9
2024-02-13T17:17:10.010Z,12.8
2024-02-13T17:20:11.027Z,12.6
2024-02-13T17:23:09.767Z,12.4
2024-02-13T17:26:09.933Z,12.1
2024-02-13T17:29:09.739Z,12.0
2024-02-13T17:32:10.033Z,12.1
2024-02-13T17:35:13.727Z,12.3
2024-02-13T17:38:09.678Z,12.4
2024-02-13T17:41:09.942Z,12.6
2024-02-13T17:44:12.984Z,12.7
2024-02-13T17:47:09.839Z,12.8
2024-02-13T17:50:10.955Z,12.5
2024-02-13T17:53:09.747Z,12.2
2024-02-13T17:56:14.389Z,11.9
2024-02-13T17:59:09.916Z,11.8
2024-02-13T18:02:12.668Z,11.7
2024-02-13T18:05:10.781Z,11.7
2024-02-13T18:32:10.862Z,11.1
2024-02-13T18:35:11.129Z,11.1
2024-02-13T18:38:09.788Z,11.2
2024-02-13T18:50:11.125Z,11.6
2024-02-13T18:53:13.501Z,11.9
2024-02-13T18:56:09.880Z,12.1
2024-02-13T18:59:09.765Z,12.3
2024-02-13T19:02:10.523Z,12.4
2024-02-13T19:05:10.155Z,12.5
2024-02-13T19:17:09.862Z,12.1
2024-02-13T19:20:10.743Z,12.0
2024-02-13T19:23:09.964Z,12.1
2024-02-13T19:26:09.709Z,12.4
2024-02-13T19:41:10.499Z,11.9
2024-02-13T19:44:10.220Z,12.0
2024-02-13T19:47:10.106Z,12.1
2024-02-13T19:59:09.779Z,11.7
2024-02-13T20:02:10.688Z,12.0
2024-02-13T20:05:10.351Z,12.2
2024-02-13T20:08:10.662Z,12.2
2024-02-13T20:11:09.865Z,12.3
2024-02-13T20:14:09.789Z,12.3
2024-02-13T20:17:11.641Z,12.4
2024-02-13T20:20:11.057Z,12.5
2024-02-13T20:29:09.796Z,11.6
2024-02-13T20:32:10.347Z,11.7
2024-02-13T20:35:13.372Z,12.1
2024-02-13T20:38:10.418Z,12.1
2024-02-13T20:41:12.134Z,12.2
2024-02-13T20:44:09.729Z,12.3
2024-02-13T20:50:10.610Z,12.1
2024-02-13T20:53:09.978Z,12.0
2024-02-13T20:56:10.254Z,12.1
2024-02-13T20:59:12.072Z,12.1
2024-02-13T21:02:10.214Z,12.1
2024-02-13T21:05:10.394Z,11.8
2024-02-13T21:08:10.194Z,11.8
2024-02-13T21:11:09.834Z,11.9
2024-02-13T21:14:09.772Z,12.1
2024-02-13T21:20:10.816Z,11.9
2024-02-13T21:23:10.016Z,11.8
2024-02-13T21:26:09.884Z,12.0
2024-02-13T21:29:09.720Z,11.9
2024-02-13T21:32:10.298Z,11.9
2024-02-13T21:50:10.922Z,11.3
2024-02-13T21:53:10.047Z,11.5
2024-02-13T21:56:09.840Z,11.7
2024-02-13T21:59:09.970Z,11.7
2024-02-13T22:02:10.211Z,11.7
2024-02-13T22:05:10.188Z,11.7
2024-02-13T22:08:10.246Z,11.6
2024-02-13T22:11:10.107Z,11.7
2024-02-13T22:14:09.975Z,11.7
2024-02-13T22:17:09.975Z,11.7
2024-02-13T22:20:11.219Z,11.6
2024-02-13T22:23:10.356Z,11.6
2024-02-13T22:26:09.811Z,11.6
2024-02-13T22:29:09.674Z,11.6
2024-02-13T22:32:10.024Z,11.7
2024-02-13T22:44:09.641Z,10.7
2024-02-13T23:05:10.475Z,10.5
2024-02-13T23:08:10.376Z,10.6
2024-02-13T23:11:10.198Z,10.9
2024-02-13T23:14:12.602Z,11.2
2024-02-13T23:20:10.888Z,11.2
2024-02-13T23:23:09.869Z,11.1
2024-02-13T23:26:09.782Z,11.2
2024-02-13T23:32:09.970Z,11.3
2024-02-13T23:35:11.722Z,11.3
2024-02-13T23:38:10.015Z,11.2
2024-02-13T23:41:10.103Z,11.1
2024-02-13T23:44:09.986Z,11.2
2024-02-13T23:47:09.863Z,11.1
2024-02-13T23:50:10.785Z,11.2
2024-02-13T23:53:09.858Z,11.2
2024-02-13T23:56:10.013Z,11.4
2024-02-13T23:59:09.923Z,11.5
